Time;durP1;ratioP1;P1;durP2;ratioP2;P2;SDS_P1;SDS_P2;PMS_P1;PMS_P2;Temp;Humidity;BMP_temperature;BMP_pressure;BME280_temperature;BME280_humidity;BME280_pressure;Samples;Min_cycle;Max_cycle;Signal;HPM_P1;HPM_P2
2023/05/08 00:00:31;;;;;;;1999.90;999.90;;;8.70;99.90;;;;;;5090511;28;20457;-73
2023/05/08 00:02:58;;;;;;;1999.90;999.90;;;8.60;99.90;;;;;;5090226;28;20430;-73
2023/05/08 00:05:25;;;;;;;1999.90;999.90;;;8.60;99.90;;;;;;5088666;28;20911;-73
2023/05/08 00:07:59;;;;;;;1999.90;999.90;;;8.60;99.90;;;;;;5087476;28;20510;-73
2023/05/08 00:10:27;;;;;;;1999.90;999.90;;;8.60;99.90;;;;;;5090479;28;20450;-73
2023/05/08 00:12:54;;;;;;;1999.90;999.90;;;8.60;99.90;;;;;;5088569;28;20495;-72
2023/05/08 00:15:20;;;;;;;1999.90;999.90;;;8.80;99.90;;;;;;5089221;28;20425;-73
2023/05/08 00:17:47;;;;;;;1999.90;999.90;;;8.50;99.90;;;;;;5088498;28;20554;-73
2023/05/08 00:20:14;;;;;;;1999.90;999.90;;;8.50;99.90;;;;;;5089756;28;20483;-73
2023/05/08 00:22:40;;;;;;;1999.90;999.90;;;8.40;99.90;;;;;;5088111;28;20988;-73
2023/05/08 00:25:09;;;;;;;1999.90;999.90;;;8.40;99.90;;;;;;5089741;28;20467;-73
2023/05/08 00:27:36;;;;;;;1999.90;999.90;;;8.50;99.90;;;;;;5088451;28;20429;-71
2023/05/08 00:30:02;;;;;;;1999.90;999.90;;;8.50;99.90;;;;;;5089433;28;20426;-71
2023/05/08 00:32:29;;;;;;;1999.90;999.90;;;8.50;99.90;;;;;;5088507;28;20433;-73
2023/05/08 00:34:56;;;;;;;1999.90;999.90;;;8.30;99.90;;;;;;5089513;28;20425;-73
2023/05/08 00:37:22;;;;;;;1999.90;999.90;;;8.30;99.90;;;;;;5087949;28;20483;-71
2023/05/08 00:39:49;;;;;;;1999.90;999.90;;;8.30;99.90;;;;;;5089680;28;20977;-74
2023/05/08 00:42:17;;;;;;;1999.90;999.90;;;8.20;99.90;;;;;;5087817;28;20464;-73
2023/05/08 00:44:44;;;;;;;1999.90;999.90;;;8.20;99.90;;;;;;5089344;28;20486;-73
2023/05/08 00:47:11;;;;;;;1999.90;999.90;;;8.10;99.90;;;;;;5087318;28;20430;-74
2023/05/08 00:49:38;;;;;;;1999.90;999.90;;;8.10;99.90;;;;;;5088538;28;20437;-73
2023/05/08 00:52:07;;;;;;;1999.90;999.90;;;8.10;99.90;;;;;;5087978;28;20443;-73
2023/05/08 00:54:35;;;;;;;1999.90;999.90;;;8.00;99.90;;;;;;5089442;28;20430;-73
2023/05/08 00:57:02;;;;;;;1999.90;999.90;;;8.00;99.90;;;;;;5088227;28;20426;-79
2023/05/08 00:59:31;;;;;;;1999.90;999.90;;;8.00;99.90;;;;;;5087705;28;20451;-73
2023/05/08 01:01:57;;;;;;;1999.90;999.90;;;7.90;99.90;;;;;;5089368;28;20465;-73
2023/05/08 01:04:26;;;;;;;1999.90;999.90;;;7.90;99.90;;;;;;5088855;28;20915;-72
2023/05/08 01:06:53;;;;;;;1999.90;999.90;;;7.90;99.90;;;;;;5089087;28;20430;-73
2023/05/08 01:09:19;;;;;;;1999.90;999.90;;;7.90;99.90;;;;;;5086177;28;20474;-70
2023/05/08 01:11:53;;;;;;;1999.90;999.90;;;7.80;99.90;;;;;;5089203;28;20429;-73
2023/05/08 01:14:24;;;;;;;1999.90;999.90;;;7.80;99.90;;;;;;5090100;28;20454;-68
2023/05/08 01:17:01;;;;;;;1999.90;999.90;;;7.70;99.90;;;;;;5089499;28;20508;-70
2023/05/08 01:19:52;;;;;;;1999.90;999.90;;;7.70;99.90;;;;;;5089563;28;20422;-73
2023/05/08 01:22:34;;;;;;;1999.90;999.90;;;7.70;99.90;;;;;;5088357;28;20421;-69
2023/05/08 01:25:29;;;;;;;1999.90;999.90;;;7.80;99.90;;;;;;5089994;28;20444;-71
2023/05/08 01:28:21;;;;;;;1999.90;999.90;;;7.60;99.90;;;;;;5085303;28;20919;-72
2023/05/08 01:30:59;;;;;;;1999.90;999.90;;;7.60;99.90;;;;;;5088054;28;20483;-75
2023/05/08 01:33:35;;;;;;;1999.90;999.90;;;7.60;99.90;;;;;;5081391;28;20482;-73
2023/05/08 01:36:17;;;;;;;1999.90;999.90;;;7.60;99.90;;;;;;5087789;28;21123;-73
2023/05/08 01:38:55;;;;;;;1999.90;999.90;;;7.60;99.90;;;;;;5081580;28;20924;-73
2023/05/08 01:41:27;;;;;;;1999.90;999.90;;;7.60;99.90;;;;;;5086699;28;20458;-74
2023/05/08 01:44:02;;;;;;;1999.90;999.90;;;7.60;99.90;;;;;;5088641;28;20460;-74
2023/05/08 01:46:32;;;;;;;1999.90;999.90;;;7.50;99.90;;;;;;5083329;28;20438;-74
2023/05/08 01:49:06;;;;;;;1999.90;999.90;;;7.60;99.90;;;;;;5087832;28;20904;-73
2023/05/08 01:51:41;;;;;;;1999.90;999.90;;;7.60;99.90;;;;;;5087801;28;20433;-72
2023/05/08 01:54:12;;;;;;;1999.90;999.90;;;7.60;99.90;;;;;;5088608;28;20509;-74
2023/05/08 01:56:42;;;;;;;1999.90;999.90;;;7.60;99.90;;;;;;5087826;28;20437;-73
2023/05/08 01:59:12;;;;;;;1999.90;999.90;;;7.60;99.90;;;;;;5086684;28;20433;-71
2023/05/08 02:01:40;;;;;;;1999.90;999.90;;;7.50;99.90;;;;;;5081454;28;20422;-73
2023/05/08 02:04:09;;;;;;;1999.90;999.90;;;7.50;99.90;;;;;;5088825;28;20430;-69
2023/05/08 02:06:38;;;;;;;1999.90;999.90;;;7.60;99.90;;;;;;5089928;28;20551;-73
2023/05/08 02:09:07;;;;;;;1999.90;999.90;;;7.50;99.90;;;;;;5085702;28;20984;-71
2023/05/08 02:11:36;;;;;;;1999.90;999.90;;;7.50;99.90;;;;;;5088416;28;20421;-74
2023/05/08 02:14:04;;;;;;;1999.90;999.90;;;7.50;99.90;;;;;;5088561;28;20846;-73
2023/05/08 02:16:32;;;;;;;1999.90;999.90;;;7.50;99.90;;;;;;5087214;28;20426;-73
2023/05/08 02:19:01;;;;;;;1999.90;999.90;;;7.50;99.90;;;;;;5085331;28;20499;-74
2023/05/08 02:21:31;;;;;;;1999.90;999.90;;;7.60;99.90;;;;;;5088163;28;20429;-73
2023/05/08 02:23:59;;;;;;;1999.90;999.90;;;7.50;99.90;;;;;;5088327;28;20431;-73
2023/05/08 02:26:27;;;;;;;1999.90;999.90;;;7.50;99.90;;;;;;5086480;28;20807;-73
2023/05/08 02:28:55;;;;;;;1999.90;999.90;;;7.40;99.90;;;;;;5085565;28;20479;-73
2023/05/08 02:31:23;;;;;;;1999.90;999.90;;;7.40;99.90;;;;;;5088932;28;20437;-73
2023/05/08 02:33:50;;;;;;;1999.90;999.90;;;7.40;99.90;;;;;;5089222;28;20479;-72
2023/05/08 02:36:19;;;;;;;1999.90;999.90;;;7.40;99.90;;;;;;5088406;28;20438;-71
2023/05/08 02:38:51;;;;;;;1999.90;999.90;;;7.30;99.90;;;;;;5086489;28;20448;-69
2023/05/08 02:41:20;;;;;;;1999.90;999.90;;;7.30;99.90;;;;;;5088509;28;20521;-70
2023/05/08 02:43:47;;;;;;;1999.90;999.90;;;7.20;99.90;;;;;;5089003;28;20426;-70
2023/05/08 02:46:17;;;;;;;1999.90;999.90;;;7.20;99.90;;;;;;5087466;28;20451;-71
2023/05/08 02:48:54;;;;;;;1999.90;999.90;;;7.10;99.90;;;;;;5083355;28;20425;-72
2023/05/08 02:51:26;;;;;;;1999.90;999.90;;;7.10;99.90;;;;;;5088669;28;20921;-67
2023/05/08 02:53:58;;;;;;;1999.90;999.90;;;7.10;99.90;;;;;;5088211;28;20505;-72
2023/05/08 02:56:34;;;;;;;1999.90;999.90;;;7.00;99.90;;;;;;5087042;28;20861;-75
2023/05/08 02:59:13;;;;;;;1999.90;999.90;;;7.00;99.90;;;;;;5089141;28;20951;-72
2023/05/08 03:01:45;;;;;;;1999.90;999.90;;;7.00;99.90;;;;;;5085659;28;20426;-71
2023/05/08 03:04:19;;;;;;;1999.90;999.90;;;7.00;99.90;;;;;;5086703;28;20484;-75
2023/05/08 03:06:48;;;;;;;1999.90;999.90;;;7.00;99.90;;;;;;5087327;28;20505;-71
2023/05/08 03:09:20;;;;;;;1999.90;999.90;;;7.00;99.90;;;;;;5087742;28;20472;-69
2023/05/08 03:11:49;;;;;;;1999.90;999.90;;;7.00;99.90;;;;;;5091989;28;20429;-69
2023/05/08 03:14:22;;;;;;;1999.90;999.90;;;6.90;99.90;;;;;;5092130;28;20425;-70
2023/05/08 03:16:52;;;;;;;1999.90;999.90;;;6.80;99.90;;;;;;5091797;28;20430;-68
2023/05/08 03:19:23;;;;;;;1999.90;999.90;;;6.80;99.90;;;;;;5091722;28;20430;-71
2023/05/08 03:21:53;;;;;;;1999.90;999.90;;;6.70;99.90;;;;;;5086365;28;20430;-71
2023/05/08 03:24:23;;;;;;;1999.90;999.90;;;6.70;99.90;;;;;;5092641;28;20426;-70
2023/05/08 03:26:51;;;;;;;1999.90;999.90;;;6.70;99.90;;;;;;5090953;28;20986;-69
2023/05/08 03:29:18;;;;;;;1999.90;999.90;;;6.70;99.90;;;;;;5091168;28;20426;-71
2023/05/08 03:31:46;;;;;;;1999.90;999.90;;;6.60;99.90;;;;;;5091378;28;20950;-71
2023/05/08 03:34:15;;;;;;;1999.90;999.90;;;6.60;99.90;;;;;;5091902;28;20483;-71
2023/05/08 03:36:42;;;;;;;1999.90;999.90;;;6.60;99.90;;;;;;5091025;28;20437;-71
2023/05/08 03:39:09;;;;;;;1999.90;999.90;;;6.60;99.90;;;;;;5091753;28;20430;-70
2023/05/08 03:41:37;;;;;;;1999.90;999.90;;;6.50;99.90;;;;;;5092289;28;20426;-71
2023/05/08 03:44:05;;;;;;;1999.90;999.90;;;6.60;99.90;;;;;;5091175;28;20850;-72
2023/05/08 03:46:32;;;;;;;1999.90;999.90;;;6.60;99.90;;;;;;5090353;28;20929;-71
2023/05/08 03:49:02;;;;;;;1999.90;999.90;;;6.50;99.90;;;;;;5091010;28;20434;-71
2023/05/08 03:51:30;;;;;;;1999.90;999.90;;;6.60;99.90;;;;;;5089877;28;20425;-71
2023/05/08 03:53:56;;;;;;;1999.90;999.90;;;6.50;99.90;;;;;;5091704;28;20442;-71
2023/05/08 03:56:23;;;;;;;1999.90;999.90;;;6.50;99.90;;;;;;5089457;28;20449;-71
2023/05/08 03:59:00;;;;;;;1999.90;999.90;;;6.50;99.90;;;;;;5090032;28;20429;-72
2023/05/08 04:01:38;;;;;;;1999.90;999.90;;;6.50;99.90;;;;;;5090040;28;20431;-71
2023/05/08 04:04:10;;;;;;;1999.90;999.90;;;6.60;99.90;;;;;;5087675;28;20495;-72
2023/05/08 04:06:41;;;;;;;1999.90;999.90;;;6.50;99.90;;;;;;5089261;28;20463;-72
2023/05/08 04:09:13;;;;;;;1999.90;999.90;;;6.60;99.90;;;;;;5091811;28;20454;-71
2023/05/08 04:11:44;;;;;;;1999.90;999.90;;;6.60;99.90;;;;;;5090319;28;20425;-69
2023/05/08 04:14:18;;;;;;;1999.90;999.90;;;6.60;99.90;;;;;;5090421;28;20434;-69
2023/05/08 04:16:49;;;;;;;1999.90;999.90;;;6.60;99.90;;;;;;5084458;28;20434;-72
2023/05/08 04:19:23;;;;;;;1999.90;999.90;;;6.60;99.90;;;;;;5091514;28;20426;-71
2023/05/08 04:21:54;;;;;;;1999.90;999.90;;;6.60;99.90;;;;;;5091543;28;20454;-71
2023/05/08 04:24:22;;;;;;;1999.90;999.90;;;6.60;99.90;;;;;;5091846;28;20426;-72
2023/05/08 04:26:49;;;;;;;1999.90;999.90;;;6.70;99.90;;;;;;5090611;28;20904;-71
2023/05/08 04:29:18;;;;;;;1999.90;999.90;;;6.70;99.90;;;;;;5091574;28;20429;-71
2023/05/08 04:31:46;;;;;;;1999.90;999.90;;;6.80;99.90;;;;;;5089323;28;20841;-72
2023/05/08 04:34:13;;;;;;;1999.90;999.90;;;6.90;99.90;;;;;;5090359;28;20506;-71
2023/05/08 04:36:40;;;;;;;1999.90;999.90;;;7.00;99.90;;;;;;5092187;28;20429;-72
2023/05/08 04:39:07;;;;;;;1999.90;999.90;;;7.10;99.90;;;;;;5091186;28;20808;-72
2023/05/08 04:41:34;;;;;;;1999.90;999.90;;;7.10;99.90;;;;;;5091435;28;20426;-72
2023/05/08 04:44:01;;;;;;;1999.90;999.90;;;7.10;99.90;;;;;;5088598;28;20523;-71
2023/05/08 04:46:29;;;;;;;1999.90;999.90;;;7.30;99.90;;;;;;5089679;28;20442;-72
2023/05/08 04:48:56;;;;;;;1999.90;999.90;;;7.40;99.90;;;;;;5091162;28;20425;-70
2023/05/08 04:51:23;;;;;;;1999.90;999.90;;;7.40;99.90;;;;;;5090579;28;20512;-69
2023/05/08 04:53:49;;;;;;;1999.90;999.90;;;7.50;99.90;;;;;;5088543;28;20426;-73
2023/05/08 04:56:18;;;;;;;1999.90;999.90;;;7.60;99.90;;;;;;5088526;28;20437;-68
2023/05/08 04:58:44;;;;;;;1999.90;999.90;;;7.70;99.90;;;;;;5089284;28;20440;-71
2023/05/08 05:01:11;;;;;;;1999.90;999.90;;;7.90;99.90;;;;;;5089995;28;20823;-72
2023/05/08 05:03:39;;;;;;;1999.90;999.90;;;8.00;99.90;;;;;;5088676;28;20430;-71
2023/05/08 05:06:06;;;;;;;1999.90;999.90;;;8.00;99.90;;;;;;5090003;28;20542;-71
2023/05/08 05:08:32;;;;;;;1999.90;999.90;;;8.00;99.90;;;;;;5088750;28;20439;-73
2023/05/08 05:10:59;;;;;;;1999.90;999.90;;;8.20;99.90;;;;;;5089756;28;20434;-71
2023/05/08 05:13:26;;;;;;;1999.90;999.90;;;8.30;99.90;;;;;;5088558;28;20437;-70
2023/05/08 05:15:53;;;;;;;1999.90;999.90;;;8.30;99.90;;;;;;5088462;28;20440;-72
2023/05/08 05:18:19;;;;;;;1999.90;999.90;;;8.30;99.90;;;;;;5087904;28;20427;-71
2023/05/08 05:20:47;;;;;;;1999.90;999.90;;;8.50;99.90;;;;;;5088988;28;20425;-72
2023/05/08 05:23:14;;;;;;;1999.90;999.90;;;8.50;99.90;;;;;;5084949;28;20430;-72
2023/05/08 05:25:41;;;;;;;1999.90;999.90;;;8.80;99.90;;;;;;5087989;28;20425;-72
2023/05/08 05:28:07;;;;;;;1999.90;999.90;;;8.60;99.90;;;;;;5087254;28;20494;-72
2023/05/08 05:30:34;;;;;;;1999.90;999.90;;;8.60;99.90;;;;;;5089281;28;20429;-72
2023/05/08 05:33:01;;;;;;;1999.90;999.90;;;8.60;99.90;;;;;;5087785;28;20422;-72
2023/05/08 05:35:28;;;;;;;1999.90;999.90;;;8.50;99.90;;;;;;5087825;28;20448;-72
2023/05/08 05:37:56;;;;;;;1999.90;999.90;;;8.70;99.90;;;;;;5085525;28;20474;-72
2023/05/08 05:40:22;;;;;;;1999.90;999.90;;;8.90;99.90;;;;;;5087832;28;20430;-71
2023/05/08 05:42:50;;;;;;;1999.90;999.90;;;8.90;99.90;;;;;;5087202;28;20422;-72
2023/05/08 05:45:17;;;;;;;1999.90;999.90;;;9.10;99.90;;;;;;5088973;28;20636;-72
2023/05/08 05:47:48;;;;;;;1999.90;999.90;;;9.00;99.90;;;;;;5087691;28;20430;-72
2023/05/08 05:50:16;;;;;;;1999.90;999.90;;;9.00;99.90;;;;;;5088781;28;20931;-72
2023/05/08 05:52:43;;;;;;;1999.90;999.90;;;9.10;99.90;;;;;;5086143;28;20425;-72
2023/05/08 05:55:11;;;;;;;1999.90;999.90;;;9.30;99.90;;;;;;5087713;28;20425;-71
2023/05/08 05:57:38;;;;;;;1999.90;999.90;;;9.40;99.90;;;;;;5087706;28;20426;-72
2023/05/08 06:00:07;;;;;;;1999.90;999.90;;;9.30;99.90;;;;;;5087149;28;20972;-72
2023/05/08 06:02:33;;;;;;;1999.90;999.90;;;9.40;99.90;;;;;;5087300;28;20443;-71
2023/05/08 06:05:00;;;;;;;1999.90;999.90;;;9.60;99.90;;;;;;5087979;28;20434;-72
2023/05/08 06:07:26;;;;;;;1999.90;999.90;;;9.60;99.90;;;;;;5087076;28;20433;-72
2023/05/08 06:09:53;;;;;;;1999.90;999.90;;;9.70;99.90;;;;;;5083057;28;20939;-72
2023/05/08 06:12:21;;;;;;;1999.90;999.90;;;9.80;99.90;;;;;;5083816;28;20781;-71
2023/05/08 06:14:50;;;;;;;1999.90;999.90;;;9.70;99.90;;;;;;5087890;28;20429;-71
2023/05/08 06:17:17;;;;;;;1999.90;999.90;;;9.80;99.90;;;;;;5085972;28;20426;-71
2023/05/08 06:19:44;;;;;;;1999.90;999.90;;;9.80;99.90;;;;;;5086837;28;20795;-71
2023/05/08 06:22:11;;;;;;;1999.90;999.90;;;9.80;99.90;;;;;;5087295;28;20504;-72
2023/05/08 06:24:37;;;;;;;1999.90;999.90;;;10.20;99.90;;;;;;5083659;28;20426;-72
2023/05/08 06:27:04;;;;;;;1999.90;999.90;;;10.30;99.90;;;;;;5086818;28;20429;-71
2023/05/08 06:29:32;;;;;;;1999.90;999.90;;;10.30;99.90;;;;;;5081196;28;20430;-71
2023/05/08 06:31:59;;;;;;;1999.90;999.90;;;10.50;99.90;;;;;;5085455;28;20505;-72
2023/05/08 06:34:25;;;;;;;1999.90;999.90;;;10.50;99.90;;;;;;5087223;28;20426;-71
2023/05/08 06:36:52;;;;;;;1999.90;999.90;;;10.60;99.90;;;;;;5081963;28;20426;-70
2023/05/08 06:39:19;;;;;;;1999.90;999.90;;;10.80;99.90;;;;;;5085917;28;20437;-72
2023/05/08 06:41:47;;;;;;;1999.90;999.90;;;11.00;99.90;;;;;;5084363;28;20429;-71
2023/05/08 06:44:14;;;;;;;1999.90;999.90;;;11.00;99.90;;;;;;5084336;28;20535;-72
2023/05/08 06:46:42;;;;;;;1999.90;999.90;;;11.30;99.90;;;;;;5090284;28;20785;-72
2023/05/08 06:49:08;;;;;;;1999.90;999.90;;;11.40;99.90;;;;;;5090126;28;20478;-72
2023/05/08 06:51:37;;;;;;;1999.90;999.90;;;11.50;99.90;;;;;;5090046;28;20465;-71
2023/05/08 06:54:06;;;;;;;1999.90;999.90;;;11.60;99.90;;;;;;5086943;28;20455;-71
2023/05/08 06:56:33;;;;;;;1999.90;999.90;;;11.60;99.90;;;;;;5089288;28;20449;-71
2023/05/08 06:59:00;;;;;;;1999.90;999.90;;;11.70;99.90;;;;;;5091774;28;20533;-71
2023/05/08 07:01:26;;;;;;;1999.90;999.90;;;11.60;99.90;;;;;;5087962;28;20923;-72
2023/05/08 07:03:54;;;;;;;1999.90;999.90;;;11.70;99.90;;;;;;5083303;28;20476;-72
2023/05/08 07:06:21;;;;;;;1999.90;999.90;;;11.90;99.90;;;;;;5090408;28;20429;-71
2023/05/08 07:08:48;;;;;;;1999.90;999.90;;;12.20;99.90;;;;;;5089658;28;20695;-71
2023/05/08 07:11:15;;;;;;;1999.90;999.90;;;12.30;99.90;;;;;;5088219;28;20425;-71
2023/05/08 07:13:42;;;;;;;1999.90;999.90;;;12.40;99.90;;;;;;5087115;28;20479;-71
2023/05/08 07:16:09;;;;;;;1999.90;999.90;;;12.40;99.90;;;;;;5088032;28;20861;-72
2023/05/08 07:18:36;;;;;;;1999.90;999.90;;;12.20;99.90;;;;;;5086105;28;20516;-72
2023/05/08 07:21:04;;;;;;;1999.90;999.90;;;12.10;99.90;;;;;;5087438;28;20438;-72
2023/05/08 07:23:31;;;;;;;1999.90;999.90;;;12.00;99.90;;;;;;5087757;28;20418;-71
2023/05/08 07:25:58;;;;;;;1999.90;999.90;;;12.00;99.90;;;;;;5090493;28;20425;-71
2023/05/08 07:28:25;;;;;;;1999.90;999.90;;;12.00;99.90;;;;;;5087691;28;20434;-72
2023/05/08 07:30:51;;;;;;;1999.90;999.90;;;12.10;99.90;;;;;;5088327;28;20958;-72
2023/05/08 07:33:18;;;;;;;1999.90;999.90;;;12.30;99.90;;;;;;5087418;28;20422;-70
2023/05/08 07:35:45;;;;;;;1999.90;999.90;;;12.30;99.90;;;;;;5088848;28;20457;-71
2023/05/08 07:38:13;;;;;;;1999.90;999.90;;;12.40;99.90;;;;;;5088518;28;20429;-71
2023/05/08 07:40:40;;;;;;;1999.90;999.90;;;12.60;99.90;;;;;;5084155;28;20487;-72
2023/05/08 07:43:06;;;;;;;1999.90;999.90;;;12.70;99.90;;;;;;5088131;28;20426;-71
2023/05/08 07:45:34;;;;;;;1999.90;999.90;;;12.80;99.90;;;;;;5086005;28;20429;-70
2023/05/08 07:48:00;;;;;;;1999.90;999.90;;;13.00;99.90;;;;;;5086726;28;20426;-71
2023/05/08 07:50:27;;;;;;;1999.90;999.90;;;13.20;99.90;;;;;;5088467;28;20456;-71
2023/05/08 07:52:54;;;;;;;1999.90;999.90;;;13.30;99.90;;;;;;5090238;28;20847;-72
2023/05/08 07:55:22;;;;;;;1999.90;999.90;;;13.30;99.90;;;;;;5092400;28;20466;-72
2023/05/08 07:57:48;;;;;;;1999.90;999.90;;;13.10;99.90;;;;;;5099248;28;20475;-71
2023/05/08 08:00:16;;;;;;;1999.90;999.90;;;13.10;99.90;;;;;;5108814;28;20491;-72
2023/05/08 08:02:44;;;;;;;1999.90;999.90;;;13.30;99.90;;;;;;5113125;28;20469;-72
2023/05/08 08:05:10;;;;;;;1999.90;999.90;;;13.30;99.90;;;;;;5112852;28;20408;-71
2023/05/08 08:07:37;;;;;;;1999.90;999.90;;;13.40;99.90;;;;;;5112755;27;20415;-72
2023/05/08 08:10:04;;;;;;;1999.90;999.90;;;13.50;99.90;;;;;;5100829;27;20430;-71
2023/05/08 08:12:32;;;;;;;1999.90;999.90;;;13.60;99.90;;;;;;5111359;28;20477;-69
2023/05/08 08:14:59;;;;;;;1999.90;999.90;;;13.70;99.90;;;;;;5112979;28;20415;-68
2023/05/08 08:17:26;;;;;;;1999.90;999.90;;;13.80;99.90;;;;;;5113003;28;20419;-69
2023/05/08 08:19:52;;;;;;;1999.90;999.90;;;13.90;99.90;;;;;;5110195;28;20404;-69
2023/05/08 08:22:19;;;;;;;1999.90;999.90;;;14.00;99.90;;;;;;5094053;28;20426;-68
2023/05/08 08:24:46;;;;;;;1999.90;999.90;;;14.00;99.90;;;;;;5092898;28;20414;-69
2023/05/08 08:27:13;;;;;;;1999.90;999.90;;;14.00;99.90;;;;;;5092605;28;20443;-67
2023/05/08 08:29:41;;;;;;;1999.90;999.90;;;14.00;99.90;;;;;;5092606;28;20418;-69
2023/05/08 08:32:08;;;;;;;1999.90;999.90;;;14.00;99.90;;;;;;5091510;28;20990;-69
2023/05/08 08:34:35;;;;;;;1999.90;999.90;;;13.90;99.90;;;;;;5102610;28;20433;-69
2023/05/08 08:37:02;;;;;;;1999.90;999.90;;;14.00;99.90;;;;;;5112850;28;20416;-68
2023/05/08 08:39:32;;;;;;;1999.90;999.90;;;14.00;99.90;;;;;;5112745;28;20478;-68
2023/05/08 08:41:59;;;;;;;1999.90;999.90;;;14.00;99.90;;;;;;5112767;28;20416;-69
2023/05/08 08:44:26;;;;;;;1999.90;999.90;;;14.00;99.90;;;;;;5103771;28;20839;-71
2023/05/08 08:46:57;;;;;;;1999.90;999.90;;;14.20;99.90;;;;;;5103222;28;20949;-69
2023/05/08 08:49:29;;;;;;;1999.90;999.90;;;14.10;99.90;;;;;;5112057;28;20438;-70
2023/05/08 08:52:01;;;;;;;1999.90;999.90;;;14.10;99.90;;;;;;5109497;28;20412;-69
2023/05/08 08:54:30;;;;;;;1999.90;999.90;;;14.10;99.90;;;;;;5088152;28;20460;-69
2023/05/08 08:57:00;;;;;;;1999.90;999.90;;;14.40;99.90;;;;;;5086846;28;20433;-70
2023/05/08 08:59:28;;;;;;;1999.90;999.90;;;14.50;99.90;;;;;;5089236;28;20915;-70
2023/05/08 09:02:00;;;;;;;1999.90;999.90;;;14.80;99.90;;;;;;5087568;28;20931;-69
2023/05/08 09:04:28;;;;;;;1999.90;999.90;;;14.80;99.90;;;;;;5089376;28;20421;-70
2023/05/08 09:06:57;;;;;;;1999.90;999.90;;;14.80;99.90;;;;;;5084695;28;20504;-69
2023/05/08 09:09:24;;;;;;;1999.90;999.90;;;14.80;99.90;;;;;;5086646;28;20434;-68
2023/05/08 09:11:52;;;;;;;1999.90;999.90;;;14.80;99.90;;;;;;5088379;28;20499;-69
2023/05/08 09:14:19;;;;;;;1999.90;999.90;;;15.00;99.90;;;;;;5088272;28;20471;-69
2023/05/08 09:16:45;;;;;;;1999.90;999.90;;;15.00;99.90;;;;;;5089762;28;20915;-68
2023/05/08 09:19:15;;;;;;;1999.90;999.90;;;14.90;99.90;;;;;;5089864;28;20753;-68
2023/05/08 09:21:42;;;;;;;1999.90;999.90;;;15.00;99.90;;;;;;5089316;28;20464;-69
2023/05/08 09:24:09;;;;;;;1999.90;999.90;;;15.00;99.90;;;;;;5089581;28;20410;-69
2023/05/08 09:26:37;;;;;;;1999.90;999.90;;;15.10;99.90;;;;;;5079297;28;20455;-70
2023/05/08 09:29:11;;;;;;;1999.90;999.90;;;15.20;99.90;;;;;;5085806;28;20421;-69
2023/05/08 09:31:40;;;;;;;1999.90;999.90;;;15.30;99.90;;;;;;5087030;28;20483;-69
2023/05/08 09:34:07;;;;;;;1999.90;999.90;;;15.40;99.90;;;;;;5089206;28;20434;-70
2023/05/08 09:36:35;;;;;;;1999.90;999.90;;;15.40;99.90;;;;;;5084753;28;20995;-69
2023/05/08 09:39:02;;;;;;;1999.90;999.90;;;15.70;99.90;;;;;;5088666;28;20429;-69
2023/05/08 09:41:29;;;;;;;1999.90;999.90;;;15.60;99.90;;;;;;5088327;28;20429;-70
2023/05/08 09:44:03;;;;;;;1999.90;999.90;;;15.60;99.90;;;;;;5089125;28;20538;-70
2023/05/08 09:46:32;;;;;;;1999.90;999.90;;;15.60;99.90;;;;;;5087915;28;20495;-68
2023/05/08 09:49:01;;;;;;;1999.90;999.90;;;15.40;99.90;;;;;;5087974;28;20519;-69
2023/05/08 09:51:29;;;;;;;1999.90;999.90;;;15.40;99.90;;;;;;5089077;28;20520;-69
2023/05/08 09:53:59;;;;;;;1999.90;999.90;;;15.50;99.90;;;;;;5085797;28;20437;-70
2023/05/08 09:56:35;;;;;;;1999.90;999.90;;;15.70;99.90;;;;;;5087857;28;20461;-68
2023/05/08 09:59:05;;;;;;;1999.90;999.90;;;15.70;99.90;;;;;;5089996;28;20429;-70
2023/05/08 10:01:33;;;;;;;1999.90;999.90;;;15.80;99.90;;;;;;5084680;28;20421;-70
2023/05/08 10:04:00;;;;;;;1999.90;999.90;;;15.80;99.90;;;;;;5088908;28;20434;-69
2023/05/08 10:06:28;;;;;;;1999.90;999.90;;;15.80;99.90;;;;;;5086575;28;20483;-68
2023/05/08 10:09:09;;;;;;;1999.90;999.90;;;15.70;99.90;;;;;;5086046;28;20429;-70
2023/05/08 10:11:37;;;;;;;1999.90;999.90;;;15.90;99.90;;;;;;5091416;28;20405;-70
2023/05/08 10:14:03;;;;;;;1999.90;999.90;;;16.00;99.90;;;;;;5090912;28;20436;-69
2023/05/08 10:16:35;;;;;;;1999.90;999.90;;;16.20;99.90;;;;;;5091124;28;20421;-70
2023/05/08 10:19:08;;;;;;;1999.90;999.90;;;16.30;99.90;;;;;;5091596;28;20780;-70
2023/05/08 10:21:37;;;;;;;1999.90;999.90;;;16.40;99.90;;;;;;5095223;28;20429;-70
2023/05/08 10:24:06;;;;;;;1999.90;999.90;;;16.20;99.90;;;;;;5106838;28;20408;-70
2023/05/08 10:26:36;;;;;;;1999.90;999.90;;;16.30;99.90;;;;;;5115649;28;20824;-70
2023/05/08 10:29:07;;;;;;;1999.90;999.90;;;16.30;99.90;;;;;;5115418;28;20408;-67
2023/05/08 10:31:36;;;;;;;1999.90;999.90;;;16.40;99.90;;;;;;5088885;28;20519;-70
2023/05/08 10:34:03;;;;;;;1999.90;999.90;;;16.30;99.90;;;;;;5091672;28;20536;-70
2023/05/08 10:36:31;;;;;;;1999.90;999.90;;;16.50;99.90;;;;;;5089725;28;20430;-68
2023/05/08 10:38:59;;;;;;;1999.90;999.90;;;16.40;99.90;;;;;;5086531;28;20436;-69
2023/05/08 10:41:26;;;;;;;1999.90;999.90;;;16.50;99.90;;;;;;5092132;28;20430;-69
2023/05/08 10:43:55;;;;;;;1999.90;999.90;;;16.60;99.90;;;;;;5086400;28;20773;-68
2023/05/08 10:46:29;;;;;;;1999.90;999.90;;;16.50;99.90;;;;;;5088191;28;20858;-70
2023/05/08 10:49:07;;;;;;;1999.90;999.90;;;16.70;99.90;;;;;;5084138;28;20425;-69
2023/05/08 10:51:41;;;;;;;1999.90;999.90;;;16.80;99.90;;;;;;5088895;28;20944;-69
2023/05/08 10:54:13;;;;;;;1999.90;999.90;;;16.90;99.90;;;;;;5093958;28;20491;-70
2023/05/08 10:56:40;;;;;;;1999.90;999.90;;;16.80;99.90;;;;;;5101583;28;20428;-69
2023/05/08 10:59:18;;;;;;;1999.90;999.90;;;16.80;99.90;;;;;;5102974;28;20433;-68
2023/05/08 11:01:47;;;;;;;1999.90;999.90;;;17.00;99.90;;;;;;5105284;28;20459;-68
2023/05/08 11:04:24;;;;;;;1999.90;999.90;;;17.10;99.90;;;;;;5114763;28;20408;-69
2023/05/08 11:06:52;;;;;;;1999.90;999.90;;;17.20;99.90;;;;;;5102337;28;20495;-70
2023/05/08 11:09:26;;;;;;;1999.90;999.90;;;17.40;99.90;;;;;;5092921;28;20430;-69
2023/05/08 11:12:07;;;;;;;1999.90;999.90;;;17.20;99.90;;;;;;5073881;28;20874;-70
2023/05/08 11:14:38;;;;;;;1999.90;999.90;;;17.20;99.90;;;;;;5085730;28;20878;-69
2023/05/08 11:17:06;;;;;;;1999.90;999.90;;;17.30;99.90;;;;;;5084393;28;20845;-69
2023/05/08 11:19:32;;;;;;;1999.90;999.90;;;17.20;99.90;;;;;;5091554;28;20457;-69
2023/05/08 11:22:23;;;;;;;1999.90;999.90;;;17.30;99.90;;;;;;5092271;28;20434;-69
2023/05/08 11:24:53;;;;;;;1999.90;999.90;;;17.50;99.90;;;;;;5090602;28;20504;-68
2023/05/08 11:27:46;;;;;;;1999.90;999.90;;;17.40;99.90;;;;;;5091787;28;20479;-71
2023/05/08 11:30:22;;;;;;;1999.90;999.90;;;17.50;99.90;;;;;;5075942;28;20417;-70
2023/05/08 11:33:15;;;;;;;1999.90;999.90;;;17.50;99.90;;;;;;5088258;28;20426;-70
2023/05/08 11:35:51;;;;;;;1999.90;999.90;;;17.60;99.90;;;;;;5089327;28;20908;-70
2023/05/08 11:38:20;;;;;;;1999.90;999.90;;;17.40;99.90;;;;;;5089212;28;20426;-69
2023/05/08 11:40:49;;;;;;;1999.90;999.90;;;17.60;99.90;;;;;;5090568;28;20433;-68
2023/05/08 11:43:49;;;;;;;1999.90;999.90;;;17.80;99.90;;;;;;5085975;28;20449;-69
2023/05/08 11:46:20;;;;;;;1999.90;999.90;;;17.90;99.90;;;;;;5032958;28;20880;-69
2023/05/08 11:48:48;;;;;;;1999.90;999.90;;;17.90;99.90;;;;;;5088727;28;21263;-69
2023/05/08 11:51:19;;;;;;;1999.90;999.90;;;18.20;99.90;;;;;;5089516;28;20483;-70
2023/05/08 11:53:47;;;;;;;1999.90;999.90;;;18.10;99.90;;;;;;5089913;28;20505;-69
2023/05/08 11:56:14;;;;;;;1999.90;999.90;;;18.20;99.90;;;;;;5090664;28;20430;-70
2023/05/08 11:58:40;;;;;;;1999.90;999.90;;;18.10;99.90;;;;;;5091100;28;20445;-69
2023/05/08 12:01:07;;;;;;;1999.90;999.90;;;18.10;99.90;;;;;;5086672;28;20445;-70
2023/05/08 12:03:35;;;;;;;1999.90;999.90;;;18.20;99.90;;;;;;5090828;28;20544;-70
2023/05/08 12:06:02;;;;;;;1999.90;999.90;;;18.10;99.90;;;;;;5091095;28;20980;-70
2023/05/08 12:08:28;;;;;;;1999.90;999.90;;;18.10;99.90;;;;;;5086499;28;20910;-71
2023/05/08 12:10:57;;;;;;;1999.90;999.90;;;18.30;99.90;;;;;;5089865;28;20436;-70
2023/05/08 12:13:25;;;;;;;1999.90;999.90;;;18.50;99.90;;;;;;5090323;28;20435;-69